WEATHER DATA

YESTERDAY
Time Temp. Dewp. Hum. Wind dir Wind speed Wind gust Bar. 1h Prec. 24h Prec.
00:01 -0.6 -3 82 0 0.3 1024.2 0.0000 0.0000
00:11 -0.7 -3.2 81 0 0.3 1024.3 0.0000 0.0000
00:31 -0.8 -3.2 82 270 0.3 0.6 1024.3 0.0000 0.0000
00:41 -0.9 -3.4 81 270 0.3 0.6 1024.3 0.0000 0.0000
00:51 -1 -3.4 82 270 0.3 0.6 1024.2 0.0000 0.0000
01:02 -1 -3.4 82 0 0.6 1024.2 0.0000 0.0000
01:11 -1.2 -3.7 81 0 0.6 1024.1 0.0000 0.0000
01:21 -1.4 -3.8 82 270 0.3 0.6 1024.2 0.0000 0.0000
01:31 -1.5 -3.9 82 0 0.6 1024.1 0.0000 0.0000
01:41 -1.5 -3.9 82 0 0.6 1024.2 0.0000 0.0000
02:01 -1.6 -4 82 0 0.3 1024.1 0.0000 0.0000
02:12 -1.7 -4.1 82 270 0.3 0.6 1023.9 0.0000 0.0000
02:21 -1.8 -4.2 82 0 0.3 1024 0.0000 0.0000
02:31 -1.8 -4.2 82 270 0.3 0.6 1023.9 0.0000 0.0000
02:42 -1.9 -4.1 83 270 0.3 0.6 1023.9 0.0000 0.0000
02:52 -1.9 -4.3 82 270 0.3 0.6 1023.8 0.0000 0.0000
03:01 -2 -4.4 82 270 0.3 0.6 1023.8 0.0000 0.0000
03:11 -2.1 -4.5 82 270 0.3 0.6 1023.4 0.0000 0.0000
03:22 -2.2 -4.4 83 270 0.3 0.6 1023.2 0.0000 0.0000
03:32 -2.2 -4.4 83 270 0.3 0.6 1023.3 0.0000 0.0000
03:41 -2.2 -4.4 83 270 0.3 0.6 1023.1 0.0000 0.0000
04:02 -2.4 -4.7 82 270 0.3 0.6 1023.1 0.0000 0.0000
04:12 -2.4 -4.6 83 228 0.3 0.8 1023 0.0000 0.0000
04:22 -2.4 -4.6 83 270 0.3 0.6 1023 0.0000 0.0000
04:32 -2.4 -4.6 83 270 0.3 0.6 1023 0.0000 0.0000
04:42 -2.4 -4.6 83 270 0.3 0.8 1023 0.0000 0.0000
04:52 -2.6 -4.8 83 229 0.3 0.6 1023.1 0.0000 0.0000
05:02 -2.6 -4.8 83 270 0.3 0.6 1023.1 0.0000 0.0000
05:12 -2.7 -4.9 83 270 0.3 0.6 1023.1 0.0000 0.0000
05:22 -2.6 -4.8 83 270 0.3 0.8 1023 0.0000 0.0000
05:32 -2.7 -4.9 83 270 0.3 0.6 1023 0.0000 0.0000
05:42 -2.7 -4.9 83 270 0.3 0.6 1023 0.0000 0.0000
05:52 -2.9 -5.4 81 234 0.3 0.6 1022.9 0.0000 0.0000
06:02 -2.9 -5.1 83 228 0.3 0.6 1022.9 0.0000 0.0000
06:12 -2.9 -5.1 83 236 0.3 0.8 1022.8 0.0000 0.0000
06:22 -3 -5.2 83 270 0.3 0.8 1022.8 0.0000 0.0000
06:32 -3 -5.2 83 229 0.3 0.8 1022.8 0.0000 0.0000
06:42 -3.1 -5.3 83 232 0.3 0.6 1022.8 0.0000 0.0000
06:52 -3 -5.2 83 270 0.3 0.8 1022.8 0.0000 0.0000
07:02 -3 -5.2 83 270 0.3 0.8 1022.8 0.0000 0.0000
07:12 -3 -5.2 83 270 0.3 0.8 1022.8 0.0000 0.0000
07:23 -3 -5.2 83 240 0.3 0.6 1022.9 0.0000 0.0000
07:32 -3.1 -5.4 82 221 0.3 0.8 1023 0.0000 0.0000
07:47 -3.1 -5.3 83 270 0.3 0.6 1023.1 0.0000 0.0000
07:58 -2.8 -4.9 84 270 0.3 0.6 1023 0.0000 0.0000
08:07 -2.5 -4.6 84 270 0.3 0.8 1023.1 0.0000 0.0000
08:17 -2.4 -4.5 84 270 0.3 0.6 1023.2 0.0000 0.0000
08:28 -2.3 -4.2 85 347 0.3 0.6 1023 0.0000 0.0000
08:38 -2 -3.9 85 90 0.3 0.6 1023.1 0.0000 0.0000
08:47 -1.8 -3.6 86 270 0.3 0.6 1023 0.0000 0.0000
08:57 -1.3 -3 87 315 0.3 0.6 1023.1 0.0000 0.0000
09:08 -0.9 -2.6 87 323 0.3 0.6 1022.9 0.0000 0.0000
09:18 -0.4 -2.1 87 235 0.3 0.6 1023 0.0000 0.0000
09:27 0 -1.7 87 325 0.6 1.7 1022.9 0.0000 0.0000
09:38 0.4 -1.3 87 330 0.8 1.7 1022.8 0.0000 0.0000
09:48 0.8 -1.1 86 328 0.6 1.4 1022.7 0.0000 0.0000
09:58 1.4 -0.6 86 344 0.6 1.4 1022.8 0.0000 0.0000
10:08 1.9 -0.2 86 2 0.3 1.1 1022.7 0.0000 0.0000
10:18 2.4 0.1 85 36 0.3 0.6 1022.8 0.0000 0.0000
10:28 3.1 0.8 85 90 0.3 0.6 1022.7 0.0000 0.0000
10:38 3.8 1.3 84 45 0.3 0.6 1022.8 0.0000 0.0000
10:48 4.4 1.6 82 128 0.3 0.8 1022.7 0.0000 0.0000
10:58 5 1.8 80 59 0.3 0.8 1022.6 0.0000 0.0000
11:08 5.7 2.2 78 90 0.3 0.8 1022.6 0.0000 0.0000
11:18 6.3 2 74 355 0.3 0.8 1022.6 0.0000 0.0000
11:28 6.8 2.3 73 90 0.3 0.6 1022.5 0.0000 0.0000
11:38 7.6 2.9 72 219 0.3 0.6 1022.4 0.0000 0.0000
11:48 8.3 3 69 156 0.3 1.1 1022.3 0.0000 0.0000
11:59 9 3.2 67 225 0.6 1.4 1022.1 0.0000 0.0000
12:08 9.6 3.4 65 205 0.3 1.1 1022 0.0000 0.0000
12:18 10.3 3.6 63 198 0.3 1.1 1021.9 0.0000 0.0000
12:29 11 3.8 61 212 0.3 1.7 1021.8 0.0000 0.0000
12:39 11.6 3.6 58 203 0.3 1.4 1021.5 0.0000 0.0000
12:53 12.2 3.7 56 186 0.6 1.7 1021.2 0.0000 0.0000
13:14 13 3.7 53 211 0.6 1.9 1021 0.0000 0.0000
13:24 13.3 3.9 53 180 0.6 1.9 1020.8 0.0000 0.0000
13:59 14 3.8 50 204 0.6 1.4 1020.4 0.0000 0.0000
14:09 14.3 3.7 49 186 0.6 1.4 1020 0.0000 0.0000
14:19 14.4 3.5 48 186 0.6 1.9 1019.9 0.0000 0.0000
14:29 14.4 3.2 47 218 0.6 1.7 1020 0.0000 0.0000
14:39 14.7 3.5 47 212 0.6 2.5 1019.9 0.0000 0.0000
14:49 14.9 3.7 47 169 0.6 1.7 1019.8 0.0000 0.0000
14:59 15.1 3.9 47 195 0.6 1.4 1019.7 0.0000 0.0000
15:09 15.3 3.8 46 185 0.3 1.1 1019.6 0.0000 0.0000
15:25 15.5 4.2 47 198 0.3 1.1 1019.4 0.0000 0.0000
15:34 15.6 4 46 213 0.3 1.1 1019.3 0.0000 0.0000
15:43 15.6 4.3 47 225 0.3 1.1 1019.4 0.0000 0.0000
15:54 15.5 4.2 47 217 0.3 1.1 1019.3 0.0000 0.0000
16:05 15.4 3.9 46 161 0.3 0.8 1019.4 0.0000 0.0000
16:14 15.2 3.7 46 169 0.3 0.8 1019.2 0.0000 0.0000
16:23 15 4.1 48 225 0.3 0.8 1019 0.0000 0.0000
16:35 14.6 3.4 47 180 0.3 1.1 1018.9 0.0000 0.0000
16:43 14.3 3.2 47 194 0.3 0.8 1018.9 0.0000 0.0000
16:55 13.7 2.9 48 0 0.6 1018.9 0.0000 0.0000
17:04 13.2 3 50 0 0.6 1018.8 0.0000 0.0000
17:15 12.5 3.2 53 0 0.3 1018.6 0.0000 0.0000
17:25 11.6 3.1 56 0 0.3 1018.6 0.0000 0.0000
17:35 10.8 2.9 58 308 0.3 0.6 1018.6 0.0000 0.0000
17:45 10.1 2.5 59 0 0.3 1018.7 0.0000 0.0000
17:55 9.4 2 60 0 0.3 1018.6 0.0000 0.0000
18:05 8.6 1.5 61 0 0.3 1018.8 0.0000 0.0000
18:35 6.6 0.5 65 0 0.3 1019 0.0000 0.0000
18:45 5.9 -0.1 65 0 0.3 1018.8 0.0000 0.0000
19:06 4.6 -0.9 67 326 0.3 0.6 1018.7 0.0000 0.0000
19:15 4.1 -0.9 69 315 0.3 0.8 1018.7 0.0000 0.0000
19:25 3.8 -1.2 69 0 0.3 1018.7 0.0000 0.0000
19:41 2.9 -1.8 70 302 0.3 0.6 1018.6 0.0000 0.0000
19:50 2.7 -1.8 71 0 0.6 1018.7 0.0000 0.0000
20:06 2.3 -2 72 270 0.3 0.6 1018.7 0.0000 0.0000
20:41 1.3 -2.5 74 0 0.3 1018.7 0.0000 0.0000
21:17 0.6 -2.8 76 270 0.3 0.8 1018.6 0.0000 0.0000
21:26 0.4 -2.9 76 344 0.3 0.6 1018.7 0.0000 0.0000
21:36 0.2 -3.1 76 0 0.6 1018.7 0.0000 0.0000
21:46 0 -3.1 77 0 0.3 1018.7 0.0000 0.0000
21:56 0 -3 78 270 0.3 0.6 1018.7 0.0000 0.0000
22:06 -0.2 -3.2 78 0 0.3 1018.6 0.0000 0.0000
22:16 -0.2 -3 79 0 0.3 1018.4 0.0000 0.0000
22:27 -0.4 -3.5 77 319 0.3 0.6 1018.4 0.0000 0.0000
22:37 -0.6 -3.4 79 270 0.3 0.6 1018.4 0.0000 0.0000
22:46 -0.8 -3.8 78 0 0.3 1018.3 0.0000 0.0000
22:56 -0.9 -3.7 79 218 0.3 0.3 1018.5 0.0000 0.0000
23:12 -0.9 -3.6 80 0 0.3 1018.4 0.0000 0.0000
23:22 -1.1 -3.9 79 270 0.3 0.6 1018.4 0.0000 0.0000
23:32 -1.2 -3.9 80 0 0.6 1018.5 0.0000 0.0000
23:42 -1.3 -4 80 315 0.3 0.6 1018.4 0.0000 0.0000
23:52 -1.4 -4.1 80 270 0.3 0.6 1018.4 0.0000 0.0000

DAY STATISTIC

2019-02-18
TEMPERATURE
AVERAGE
3.2
HIGH
15.6
15:34
LOW
-3.1
06:42
PRESSURE
AVERAGE
1021.4
HIGH
1024.3
00:11
LOW
1018.3
22:46
DEWPOINT
AVERAGE
-1.3
HIGH
4.3
15:43
LOW
-5.4
05:52
HUMIDITY
AVERAGE
73
HIGH
87
08:57
LOW
46
15:09
WIND SPEED
AVERAGE
0.3
HIGH
0.8
09:38
WIND GUST
AVERAGE
0.8
HIGH
2.5
14:39
WIND DIRECTION
PREVAILING
W
29.4%
N
4.0
NE
2.4
E
3.2
SE
1.6
S
11.9
SW
17.5
W
29.4
NW
8.7
PRECIPITATION
RAIN HOUR
0.0
RAIN DAY
0.0
TEMPERATURE (°C)
LOW
-3.1
HIGH
15.6
AVERAGE
3.2
PRESSURE (hpa)
LOW
1018.3
HIGH
1024.3
AVERAGE
1021.4
DEVICE